Terminal Aerodrome Forecast
Issued by NWS

Home | Current Version | Previous Version | Text Only | Print | Product List | Glossary On
Versions: 1 2 3 4 5 6 7 8 9 10 11 12 13 14 15 16 17 18 19 20 21 22 23 24 25 26 27 28 29 30
739
FTUS41 KOKX 242048 AAB
TAFGON
TAF AMD
KGON 242048Z 2421/2518 01014G23KT P6SM BKN010 OVC025
     FM250300 02012KT 3SM BR OVC009
     FM251500 03010G18KT P6SM BKN013
     FM251700 03011G19KT P6SM BKN022=

USA.gov is the U.S. government's official web portal to all federal, state and local government web resources and services.